Randolph, Massachusetts
Current Conditions -  °F | °C
As of 6:53 PM on Wednesday 17 Dec 2014 (Local Time) from KOWD Reporting Station
Scattered Clouds Scattered Clouds  
Wind Chill: 40°   Ceiling: Unl
Heat Index: 45°   Visibility: 10mi
Dew Point: 38°   Wind: 9mph
Humidity: 76%   Direction: 260°W
Pressure: 29.74"   Gusts: NA
Location:  42.16°N, 71.04°W
Report Text: KOWD 172353Z 26008KT 10SM SCT048 07/03 A2974 RMK AO2 SLP069 T00720033 10100 20072 51012
Loading
Personal Weather Stations






























Interactive Weather Map New forecast layout! Learn more

10-Day Weather Forecast

Advertisements
Track Severe Weather on mobile